createdAt,value
2022-12-19T00:00:29.526Z,75.07
2022-12-19T00:02:59.041Z,75.27
2022-12-19T00:05:27.142Z,75.72
2022-12-19T00:07:55.136Z,75.17
2022-12-19T00:10:23.453Z,76.26
2022-12-19T00:12:51.426Z,74.27
2022-12-19T00:15:19.453Z,73.66
2022-12-19T00:17:47.454Z,73.97
2022-12-19T00:20:18.576Z,73.56
2022-12-19T00:22:46.814Z,74.44
2022-12-19T00:25:14.899Z,74.21
2022-12-19T00:27:44.082Z,73.96
2022-12-19T00:30:13.377Z,74.75
2022-12-19T00:32:42.425Z,74.49
2022-12-19T00:35:10.821Z,74.33
2022-12-19T00:37:41.463Z,73.46
2022-12-19T00:40:17.768Z,73.60
2022-12-19T00:42:51.702Z,74.27
2022-12-19T00:45:21.593Z,73.74
2022-12-19T00:47:49.595Z,73.25
2022-12-19T00:50:17.725Z,72.98
2022-12-19T00:52:47.133Z,72.32
2022-12-19T00:55:19.288Z,72.39
2022-12-19T00:57:48.218Z,72.24
2022-12-19T01:00:18.318Z,71.66
2022-12-19T01:02:46.919Z,71.38
2022-12-19T01:05:15.166Z,71.68
2022-12-19T01:07:43.251Z,71.60
2022-12-19T01:10:12.778Z,71.19
2022-12-19T01:12:48.398Z,71.57
2022-12-19T01:15:20.543Z,72.14
2022-12-19T01:17:49.000Z,72.64
2022-12-19T01:20:28.893Z,72.66
2022-12-19T01:23:00.128Z,72.45
2022-12-19T01:25:30.229Z,71.76
2022-12-19T01:27:58.869Z,71.67
2022-12-19T01:30:27.654Z,71.43
2022-12-19T01:32:57.967Z,71.28
2022-12-19T01:35:28.950Z,71.01
2022-12-19T01:38:07.661Z,71.01
2022-12-19T01:40:39.240Z,71.11
2022-12-19T01:43:13.826Z,71.18
2022-12-19T01:45:45.870Z,71.56
2022-12-19T01:48:18.124Z,71.32
2022-12-19T01:51:02.084Z,71.71
2022-12-19T01:53:35.752Z,71.66
2022-12-19T01:56:09.936Z,71.76
2022-12-19T01:58:40.986Z,71.39
2022-12-19T02:01:09.308Z,71.33
2022-12-19T02:03:39.058Z,71.06
2022-12-19T02:06:13.442Z,70.84
2022-12-19T02:08:43.322Z,70.61
2022-12-19T02:11:12.867Z,71.09
2022-12-19T02:13:41.733Z,71.33
2022-12-19T02:16:23.443Z,71.07
2022-12-19T02:19:03.992Z,71.29
2022-12-19T02:21:55.115Z,71.57
2022-12-19T02:24:53.672Z,71.62
2022-12-19T02:27:59.265Z,71.55
2022-12-19T02:30:43.485Z,71.48
2022-12-19T02:33:17.430Z,71.57
2022-12-19T02:35:53.503Z,71.16
2022-12-19T02:38:30.313Z,71.29
2022-12-19T02:41:02.648Z,71.01
2022-12-19T02:43:36.638Z,71.09
2022-12-19T02:46:08.567Z,71.30
2022-12-19T02:48:38.379Z,71.14
2022-12-19T02:51:07.161Z,70.80
2022-12-19T02:53:38.489Z,70.57
2022-12-19T02:56:34.789Z,70.40
2022-12-19T02:59:24.782Z,70.63
2022-12-19T03:01:58.970Z,70.85
2022-12-19T03:04:40.847Z,70.58
2022-12-19T03:07:21.358Z,70.72
2022-12-19T03:09:59.950Z,70.69
2022-12-19T03:12:34.246Z,70.70
2022-12-19T03:15:03.696Z,70.17
2022-12-19T03:17:37.405Z,70.44
2022-12-19T03:20:11.437Z,70.74
2022-12-19T03:22:39.753Z,70.80
2022-12-19T03:25:08.699Z,70.69
2022-12-19T03:27:40.593Z,70.42
2022-12-19T03:30:12.556Z,70.02
2022-12-19T03:32:45.247Z,69.93
2022-12-19T03:35:16.905Z,69.41
2022-12-19T03:37:47.427Z,69.73
2022-12-19T03:40:19.000Z,70.06
2022-12-19T03:43:07.572Z,69.92
2022-12-19T03:45:46.424Z,69.91
2022-12-19T03:48:20.844Z,70.31
2022-12-19T03:51:00.009Z,70.33
2022-12-19T03:53:38.122Z,70.34
2022-12-19T03:56:14.389Z,70.14
2022-12-19T03:58:46.754Z,70.09
2022-12-19T04:01:15.672Z,70.00
2022-12-19T04:03:45.592Z,69.72
2022-12-19T04:06:15.658Z,69.60
2022-12-19T04:08:44.298Z,70.35
2022-12-19T04:11:20.883Z,70.72
2022-12-19T04:13:53.457Z,70.97
2022-12-19T04:16:25.047Z,70.83
2022-12-19T04:19:00.155Z,71.11
2022-12-19T04:21:33.757Z,72.37
2022-12-19T04:24:07.765Z,70.88
2022-12-19T04:26:38.166Z,70.47
2022-12-19T04:29:09.118Z,70.23
2022-12-19T04:31:38.065Z,70.15
2022-12-19T04:34:07.524Z,69.98
2022-12-19T04:36:36.058Z,69.55
2022-12-19T04:39:04.777Z,69.46
2022-12-19T04:41:34.517Z,69.87
2022-12-19T04:44:02.836Z,69.44
2022-12-19T04:46:30.945Z,69.27
2022-12-19T04:48:58.989Z,69.00
2022-12-19T04:51:28.563Z,68.41
2022-12-19T04:53:57.391Z,68.42
2022-12-19T04:56:25.479Z,68.30
2022-12-19T04:58:57.902Z,67.51
2022-12-19T05:01:26.343Z,67.70
2022-12-19T05:03:57.564Z,67.42
2022-12-19T05:06:29.552Z,67.03
2022-12-19T05:08:57.567Z,66.83
2022-12-19T05:11:25.631Z,66.53
2022-12-19T05:13:53.684Z,66.57
2022-12-19T05:16:21.744Z,66.52
2022-12-19T05:18:49.920Z,66.70
2022-12-19T05:21:17.898Z,66.76
2022-12-19T05:23:47.358Z,66.78
2022-12-19T05:26:15.409Z,67.19
2022-12-19T05:28:43.436Z,67.41
2022-12-19T05:31:13.390Z,67.51
2022-12-19T05:33:42.658Z,67.63
2022-12-19T05:36:12.072Z,68.06
2022-12-19T05:38:40.328Z,68.07
2022-12-19T05:41:11.029Z,67.78
2022-12-19T05:43:39.160Z,67.79
2022-12-19T05:46:07.904Z,68.36
2022-12-19T05:48:36.750Z,68.28
2022-12-19T05:51:05.109Z,67.89
2022-12-19T05:53:33.175Z,67.59
2022-12-19T05:56:06.133Z,67.61
2022-12-19T05:58:39.629Z,67.56
2022-12-19T06:01:09.521Z,67.48
2022-12-19T06:03:38.258Z,67.44
2022-12-19T06:06:08.550Z,67.68
2022-12-19T06:08:37.094Z,67.43
2022-12-19T06:11:07.099Z,67.34
2022-12-19T06:13:37.243Z,67.44
2022-12-19T06:16:08.130Z,67.32
2022-12-19T06:18:40.433Z,66.99
2022-12-19T06:21:13.158Z,67.26
2022-12-19T06:23:41.271Z,67.36
2022-12-19T06:26:18.264Z,67.27
2022-12-19T06:28:49.459Z,67.27
2022-12-19T06:31:18.867Z,67.20
2022-12-19T06:33:46.924Z,67.18
2022-12-19T06:36:17.990Z,67.26
2022-12-19T06:38:46.076Z,66.93
2022-12-19T06:41:31.686Z,66.83
2022-12-19T06:44:01.983Z,66.82
2022-12-19T06:46:30.779Z,67.03
2022-12-19T06:48:58.996Z,67.03
2022-12-19T06:51:27.482Z,67.06
2022-12-19T06:53:55.669Z,67.14
2022-12-19T06:56:24.823Z,67.04
2022-12-19T06:58:52.994Z,67.11
2022-12-19T07:01:26.347Z,66.87
2022-12-19T07:03:55.931Z,67.40
2022-12-19T07:06:24.705Z,67.56
2022-12-19T07:08:54.127Z,67.79
2022-12-19T07:11:22.276Z,67.74
2022-12-19T07:13:50.288Z,67.47
2022-12-19T07:16:18.395Z,67.36
2022-12-19T07:18:47.954Z,67.69
2022-12-19T07:21:15.993Z,67.51
2022-12-19T07:23:44.993Z,67.55
2022-12-19T07:26:13.501Z,67.95
2022-12-19T07:28:44.508Z,67.97
2022-12-19T07:31:12.744Z,68.34
2022-12-19T07:33:44.899Z,68.57
2022-12-19T07:36:14.263Z,70.08
2022-12-19T07:38:42.300Z,71.06
2022-12-19T07:41:10.333Z,72.05
2022-12-19T07:43:38.312Z,71.48
2022-12-19T07:46:06.674Z,70.68
2022-12-19T07:48:34.667Z,70.39
2022-12-19T07:51:02.777Z,69.79
2022-12-19T07:53:32.689Z,69.51
2022-12-19T07:56:00.790Z,69.58
2022-12-19T07:58:28.841Z,69.54
2022-12-19T08:00:57.792Z,69.88
2022-12-19T08:03:26.437Z,69.89
2022-12-19T08:05:54.677Z,70.05
2022-12-19T08:08:22.648Z,70.13
2022-12-19T08:10:52.008Z,70.15
2022-12-19T08:13:20.022Z,70.02
2022-12-19T08:15:48.031Z,70.02
2022-12-19T08:18:16.095Z,70.04
2022-12-19T08:20:47.113Z,69.86
2022-12-19T08:23:15.125Z,69.90
2022-12-19T08:25:43.224Z,69.76
2022-12-19T08:28:12.619Z,69.39
2022-12-19T08:30:41.332Z,69.51
2022-12-19T08:33:09.631Z,69.12
2022-12-19T08:35:37.791Z,69.28
2022-12-19T08:38:06.669Z,69.07
2022-12-19T08:40:35.384Z,67.95
2022-12-19T08:43:03.353Z,67.21
2022-12-19T08:45:32.748Z,67.61
2022-12-19T08:48:00.732Z,68.18
2022-12-19T08:50:28.784Z,68.64
2022-12-19T08:52:56.939Z,68.08
2022-12-19T08:55:25.551Z,68.60
2022-12-19T08:57:55.888Z,68.60
2022-12-19T09:00:24.885Z,67.57
2022-12-19T09:02:55.317Z,67.77
2022-12-19T09:05:59.558Z,68.16
2022-12-19T09:08:11.787Z,67.87
2022-12-19T09:10:40.361Z,68.20
2022-12-19T09:13:09.572Z,67.91
2022-12-19T09:15:37.670Z,67.47
2022-12-19T09:18:08.048Z,67.85
2022-12-19T09:20:36.129Z,67.25
2022-12-19T09:23:04.244Z,66.98
2022-12-19T09:25:32.360Z,66.06
2022-12-19T09:30:57.113Z,66.99
2022-12-19T09:33:26.934Z,66.99
2022-12-19T09:35:56.649Z,68.07
2022-12-19T09:38:26.496Z,68.28
2022-12-19T09:41:07.510Z,68.26
2022-12-19T09:43:53.388Z,68.27
2022-12-19T09:46:33.364Z,67.46
2022-12-19T09:49:03.341Z,67.37
2022-12-19T09:51:38.398Z,67.33
2022-12-19T09:54:13.579Z,67.18
2022-12-19T09:56:46.240Z,66.60
2022-12-19T09:59:22.599Z,67.00
2022-12-19T10:01:59.152Z,67.59
2022-12-19T10:04:33.238Z,67.86
2022-12-19T10:07:20.590Z,67.21
2022-12-19T10:12:34.643Z,66.95
2022-12-19T10:12:58.404Z,66.79
2022-12-19T10:15:38.972Z,66.57
2022-12-19T10:18:29.528Z,67.43
2022-12-19T10:21:07.171Z,67.00
2022-12-19T10:24:07.774Z,66.71
2022-12-19T10:26:44.400Z,67.10
2022-12-19T10:29:46.683Z,65.67
2022-12-19T10:32:22.497Z,65.79
2022-12-19T10:34:52.182Z,65.97
2022-12-19T10:37:32.754Z,64.60
2022-12-19T10:40:16.155Z,63.95
2022-12-19T10:43:01.385Z,63.38
2022-12-19T10:45:47.050Z,64.20
2022-12-19T10:48:20.839Z,63.04
2022-12-19T10:50:52.940Z,64.08
2022-12-19T10:53:29.917Z,64.00
2022-12-19T10:56:02.854Z,63.57
2022-12-19T10:58:35.181Z,63.52
2022-12-19T11:01:15.642Z,61.71
2022-12-19T11:03:46.959Z,62.40
2022-12-19T11:06:43.030Z,63.07
2022-12-19T11:09:25.591Z,62.76
2022-12-19T11:16:09.568Z,62.80
2022-12-19T11:19:23.334Z,62.20
2022-12-19T11:27:29.572Z,61.48
2022-12-19T11:29:35.213Z,61.82
2022-12-19T11:29:38.650Z,61.95
2022-12-19T11:30:43.940Z,62.15
2022-12-19T11:30:44.122Z,61.20
2022-12-19T11:34:38.489Z,62.07
2022-12-19T11:37:17.990Z,62.00
2022-12-19T11:39:49.605Z,61.84
2022-12-19T11:42:26.041Z,61.37
2022-12-19T11:45:01.550Z,62.20
2022-12-19T11:47:36.960Z,61.65
2022-12-19T11:50:14.595Z,61.52
2022-12-19T11:53:11.486Z,61.45
2022-12-19T11:55:45.473Z,60.83
2022-12-19T11:58:15.376Z,61.77
2022-12-19T12:00:52.337Z,61.55
2022-12-19T12:04:03.237Z,60.49
2022-12-19T12:06:35.420Z,59.48
2022-12-19T12:12:44.220Z,59.34
2022-12-19T12:21:09.249Z,59.46
2022-12-19T12:29:05.419Z,58.97
2022-12-19T12:31:00.803Z,57.53
2022-12-19T12:31:25.893Z,58.00
2022-12-19T12:31:49.679Z,57.34
2022-12-19T12:31:51.729Z,58.30
2022-12-19T12:31:52.225Z,57.30
2022-12-19T12:35:51.511Z,58.33
2022-12-19T12:39:29.761Z,57.17
2022-12-19T12:42:12.649Z,57.17
2022-12-19T12:44:45.949Z,57.19
2022-12-19T12:47:20.603Z,58.42
2022-12-19T12:49:54.428Z,58.70
2022-12-19T12:52:31.205Z,58.63
2022-12-19T12:54:59.838Z,58.49
2022-12-19T12:57:37.748Z,58.63
2022-12-19T13:00:22.490Z,59.64
2022-12-19T13:02:57.052Z,60.21
2022-12-19T13:05:35.630Z,59.92
2022-12-19T13:08:23.938Z,60.88
2022-12-19T13:10:57.626Z,61.75
2022-12-19T13:13:54.008Z,63.33
2022-12-19T13:16:54.284Z,62.18
2022-12-19T13:19:28.727Z,61.43
2022-12-19T13:22:17.974Z,63.91
2022-12-19T13:24:47.443Z,62.84
2022-12-19T13:27:34.913Z,62.87
2022-12-19T13:30:21.423Z,62.23
2022-12-19T13:33:10.281Z,62.40
2022-12-19T13:39:17.496Z,62.71
2022-12-19T13:40:00.347Z,63.54
2022-12-19T13:42:02.708Z,62.76
2022-12-19T13:44:33.129Z,64.58
2022-12-19T13:47:01.203Z,64.94
2022-12-19T13:49:35.139Z,64.30
2022-12-19T13:52:06.277Z,63.25
2022-12-19T13:54:45.741Z,63.74
2022-12-19T13:57:22.437Z,63.63
2022-12-19T14:00:00.177Z,62.76
2022-12-19T14:02:34.876Z,62.76
2022-12-19T14:05:33.808Z,62.43
2022-12-19T14:08:19.208Z,62.17
2022-12-19T14:11:40.923Z,62.28
2022-12-19T14:14:10.158Z,62.45
2022-12-19T14:16:45.784Z,62.29
2022-12-19T14:19:24.456Z,62.54
2022-12-19T14:22:06.855Z,62.46
2022-12-19T14:24:42.615Z,62.28
2022-12-19T14:28:18.323Z,62.45
2022-12-19T14:30:29.765Z,62.18
2022-12-19T14:33:43.625Z,62.33
2022-12-19T14:36:06.443Z,62.78
2022-12-19T14:39:25.330Z,62.93
2022-12-19T14:42:01.477Z,63.42
2022-12-19T14:52:11.446Z,63.33
2022-12-19T14:53:52.475Z,63.25
2022-12-19T14:54:23.410Z,63.49
2022-12-19T14:54:28.277Z,64.02
2022-12-19T14:59:02.507Z,64.26
2022-12-19T15:01:34.153Z,64.65
2022-12-19T15:04:52.764Z,64.64
2022-12-19T15:07:10.036Z,64.95
2022-12-19T15:11:05.551Z,64.74
2022-12-19T15:14:48.564Z,64.68
2022-12-19T15:16:00.573Z,64.79
2022-12-19T15:18:39.213Z,64.64
2022-12-19T15:21:09.633Z,64.43
2022-12-19T15:23:37.817Z,64.45
2022-12-19T15:26:08.672Z,64.78
2022-12-19T15:28:43.195Z,64.70
2022-12-19T15:31:24.551Z,65.06
2022-12-19T15:34:33.515Z,65.27
2022-12-19T15:36:40.659Z,65.29
2022-12-19T15:39:08.709Z,65.92
2022-12-19T15:41:37.133Z,65.94
2022-12-19T15:44:10.000Z,66.24
2022-12-19T15:46:44.744Z,66.68
2022-12-19T15:49:18.052Z,66.99
2022-12-19T15:51:46.371Z,67.07
2022-12-19T15:54:47.153Z,66.97
2022-12-19T15:57:02.956Z,67.21
2022-12-19T15:59:38.012Z,67.48
2022-12-19T16:02:17.547Z,67.44
2022-12-19T16:04:47.703Z,67.15
2022-12-19T16:07:18.714Z,67.49
2022-12-19T16:09:47.450Z,67.16
2022-12-19T16:12:17.053Z,67.16
2022-12-19T16:14:45.910Z,67.14
2022-12-19T16:17:20.440Z,67.26
2022-12-19T16:19:48.574Z,67.00
2022-12-19T16:22:19.540Z,67.36
2022-12-19T16:24:47.722Z,67.44
2022-12-19T16:27:22.951Z,67.48
2022-12-19T16:29:51.318Z,67.63
2022-12-19T16:32:23.106Z,67.62
2022-12-19T16:34:51.721Z,67.60
2022-12-19T16:37:19.852Z,67.89
2022-12-19T16:39:47.933Z,68.04
2022-12-19T16:42:17.374Z,67.85
2022-12-19T16:44:48.057Z,68.20
2022-12-19T16:47:18.347Z,68.02
2022-12-19T16:49:47.810Z,68.10
2022-12-19T16:52:16.095Z,68.44
2022-12-19T16:54:44.197Z,68.32
2022-12-19T16:57:20.344Z,68.49
2022-12-19T16:59:49.729Z,68.99
2022-12-19T17:02:41.742Z,68.93
2022-12-19T17:05:22.075Z,69.62
2022-12-19T17:07:50.841Z,69.24
2022-12-19T17:10:24.361Z,68.95
2022-12-19T17:12:55.587Z,68.82
2022-12-19T17:15:28.245Z,68.68
2022-12-19T17:17:59.335Z,68.82
2022-12-19T17:20:33.368Z,68.45
2022-12-19T17:23:01.422Z,68.48
2022-12-19T17:25:29.540Z,67.95
2022-12-19T17:27:57.902Z,67.58
2022-12-19T17:30:26.059Z,68.12
2022-12-19T17:32:56.777Z,67.80
2022-12-19T17:35:28.953Z,68.10
2022-12-19T17:37:59.041Z,68.63
2022-12-19T17:40:29.525Z,69.94
2022-12-19T17:42:58.747Z,70.28
2022-12-19T17:45:29.277Z,69.64
2022-12-19T17:48:02.881Z,69.11
2022-12-19T17:50:35.171Z,69.24
2022-12-19T17:53:05.109Z,69.10
2022-12-19T17:55:33.778Z,68.18
2022-12-19T17:58:01.805Z,68.31
2022-12-19T18:00:33.161Z,68.30
2022-12-19T18:03:05.999Z,68.41
2022-12-19T18:05:36.945Z,68.38
2022-12-19T18:08:20.117Z,68.35
2022-12-19T18:10:48.270Z,68.85
2022-12-19T18:13:16.411Z,68.76
2022-12-19T18:15:44.699Z,68.54
2022-12-19T18:18:15.184Z,68.07
2022-12-19T18:20:44.507Z,68.06
2022-12-19T18:23:19.465Z,67.79
2022-12-19T18:25:47.562Z,67.54
2022-12-19T18:28:16.579Z,67.71
2022-12-19T18:30:45.676Z,67.47
2022-12-19T18:33:17.709Z,67.69
2022-12-19T18:35:48.625Z,67.32
2022-12-19T18:38:20.317Z,67.28
2022-12-19T18:40:49.327Z,67.40
2022-12-19T18:43:18.183Z,66.96
2022-12-19T18:45:48.502Z,65.97
2022-12-19T18:48:21.989Z,67.23
2022-12-19T18:50:50.084Z,67.30
2022-12-19T18:53:26.499Z,68.15
2022-12-19T18:56:02.666Z,68.16
2022-12-19T18:58:30.864Z,68.04
2022-12-19T19:01:02.982Z,68.71
2022-12-19T19:03:33.911Z,68.65
2022-12-19T19:06:02.102Z,68.55
2022-12-19T19:08:35.077Z,68.51
2022-12-19T19:11:20.372Z,68.19
2022-12-19T19:13:48.449Z,68.35
2022-12-19T19:16:19.271Z,68.05
2022-12-19T19:18:50.064Z,67.92
2022-12-19T19:21:19.150Z,68.00
2022-12-19T19:23:51.623Z,68.36
2022-12-19T19:26:19.704Z,68.13
2022-12-19T19:28:52.225Z,68.06
2022-12-19T19:31:23.448Z,67.88
2022-12-19T19:33:55.995Z,67.48
2022-12-19T19:36:26.912Z,67.03
2022-12-19T19:38:58.593Z,67.32
2022-12-19T19:41:29.832Z,67.48
2022-12-19T19:43:58.952Z,67.40
2022-12-19T19:46:27.345Z,67.43
2022-12-19T19:48:55.925Z,66.69
2022-12-19T19:51:24.011Z,66.54
2022-12-19T19:53:52.221Z,66.75
2022-12-19T19:56:21.602Z,67.33
2022-12-19T19:58:49.812Z,67.82
2022-12-19T20:01:18.042Z,68.66
2022-12-19T20:03:46.462Z,68.66
2022-12-19T20:06:17.910Z,69.50
2022-12-19T20:08:47.516Z,69.81
2022-12-19T20:11:15.624Z,69.97
2022-12-19T20:13:45.252Z,69.92
2022-12-19T20:16:16.599Z,70.00
2022-12-19T20:18:49.812Z,69.22
2022-12-19T20:21:18.720Z,68.49
2022-12-19T20:23:47.074Z,68.10
2022-12-19T20:26:16.379Z,67.91
2022-12-19T20:28:49.477Z,67.79
2022-12-19T20:31:19.175Z,67.47
2022-12-19T20:33:48.558Z,66.81
2022-12-19T20:36:17.014Z,66.40
2022-12-19T20:38:45.240Z,65.97
2022-12-19T20:41:13.422Z,66.17
2022-12-19T20:43:41.825Z,66.24
2022-12-19T20:46:13.955Z,66.29
2022-12-19T20:48:42.997Z,65.99
2022-12-19T20:51:11.162Z,66.25
2022-12-19T20:53:41.644Z,66.02
2022-12-19T20:56:14.017Z,65.59
2022-12-19T20:58:42.068Z,65.26
2022-12-19T21:01:14.003Z,65.20
2022-12-19T21:03:42.883Z,65.04
2022-12-19T21:06:13.562Z,64.75
2022-12-19T21:08:43.427Z,65.25
2022-12-19T21:11:12.489Z,65.34
2022-12-19T21:13:41.995Z,65.48
2022-12-19T21:16:14.640Z,65.44
2022-12-19T21:18:44.944Z,66.17
2022-12-19T21:21:15.648Z,70.03
2022-12-19T21:23:44.872Z,67.96
2022-12-19T21:26:13.347Z,67.64
2022-12-19T21:28:41.793Z,66.67
2022-12-19T21:31:16.331Z,66.77
2022-12-19T21:33:45.318Z,67.07
2022-12-19T21:36:16.715Z,67.68
2022-12-19T21:38:44.700Z,67.09
2022-12-19T21:41:18.717Z,67.02
2022-12-19T21:43:48.914Z,66.49
2022-12-19T21:46:19.180Z,66.79
2022-12-19T21:48:48.940Z,67.13
2022-12-19T21:51:18.608Z,67.09
2022-12-19T21:53:46.991Z,66.70
2022-12-19T21:56:23.783Z,65.92
2022-12-19T21:58:52.876Z,65.80
2022-12-19T22:01:23.215Z,65.43
2022-12-19T22:03:52.328Z,65.20
2022-12-19T22:06:27.958Z,65.03
2022-12-19T22:08:57.097Z,65.16
2022-12-19T22:11:25.873Z,65.04
2022-12-19T22:13:54.475Z,65.41
2022-12-19T22:16:24.005Z,66.00
2022-12-19T22:18:53.158Z,65.81
2022-12-19T22:21:21.690Z,66.26
2022-12-19T22:23:49.832Z,66.14
2022-12-19T22:26:20.643Z,66.11
2022-12-19T22:28:50.736Z,66.65
2022-12-19T22:31:21.400Z,67.05
2022-12-19T22:33:52.420Z,67.04
2022-12-19T22:36:27.617Z,66.76
2022-12-19T22:38:57.859Z,66.90
2022-12-19T22:41:26.491Z,66.64
2022-12-19T22:43:55.308Z,66.36
2022-12-19T22:46:26.324Z,66.60
2022-12-19T22:48:57.429Z,67.13
2022-12-19T22:51:26.505Z,67.00
2022-12-19T22:53:54.675Z,67.35
2022-12-19T22:56:24.538Z,67.24
2022-12-19T22:58:54.485Z,68.01
2022-12-19T23:01:24.879Z,68.11
2022-12-19T23:03:57.189Z,67.99
2022-12-19T23:06:27.545Z,67.79
2022-12-19T23:08:55.781Z,68.29
2022-12-19T23:11:27.182Z,67.91
2022-12-19T23:13:55.584Z,67.13
2022-12-19T23:16:23.673Z,66.12
2022-12-19T23:18:51.833Z,65.09
2022-12-19T23:21:24.031Z,65.01
2022-12-19T23:23:54.771Z,64.63
2022-12-19T23:26:25.116Z,64.60
2022-12-19T23:28:55.158Z,65.43
2022-12-19T23:31:23.663Z,64.90
2022-12-19T23:33:51.987Z,64.56
2022-12-19T23:36:45.312Z,64.71
2022-12-19T23:39:10.568Z,66.46
2022-12-19T23:41:39.102Z,66.29
2022-12-19T23:44:07.436Z,66.36
2022-12-19T23:46:35.455Z,67.37
2022-12-19T23:49:03.563Z,67.53
2022-12-19T23:51:33.365Z,66.96
2022-12-19T23:54:01.408Z,66.75
2022-12-19T23:56:31.470Z,67.36
2022-12-19T23:59:00.062Z,67.32
